Date,TemperatureHighF,TemperatureAvgF,TemperatureLowF,DewpointHighF,DewpointAvgF,DewpointLowF,HumidityHigh,HumidityAvg,HumidityLow,PressureMaxIn,PressureMinIn,WindSpeedMaxMPH,WindSpeedAvgMPH,GustSpeedMaxMPH,PrecipitationSumIn
2013-1-1,47.5,44.6,38.1,45.7,39.0,20.1,98,82,46,30.18,29.97,8,0,9,0.33
2013-1-2,45.1,39.9,36.7,44.6,38.7,35.4,98,95,89,30.17,29.92,7,1,8,0.27
2013-1-3,38.7,35.1,24.6,37.9,33.4,22.3,98,93,68,30.34,30.11,16,1,16,0.00
2013-1-4,44.2,29.2,19.8,25.9,20.3,17.1,95,72,35,30.44,30.32,16,1,17,0.00
2013-1-5,45.7,32.8,19.8,31.1,19.9,9.5,86,62,24,30.46,30.28,16,1,16,0.02
2013-1-6,51.8,42.1,34.3,38.8,32.9,20.5,88,72,37,30.28,30.06,16,2,16,0.02
2013-1-7,47.3,35.1,24.8,27.3,24.6,21.2,90,68,38,30.46,30.21,20,2,21,0.00
2013-1-8,48.7,38.1,25.5,45.7,34.5,23.2,97,87,72,30.50,30.41,8,0,9,0.00
2013-1-9,55.4,51.3,45.9,53.2,50.0,44.8,98,95,88,30.48,30.41,8,0,8,0.01
2013-1-10,61.3,52.8,47.3,51.4,49.0,46.8,99,88,67,30.50,30.32,12,1,12,0.15
2013-1-11,57.6,52.9,49.3,57.2,52.4,48.4,99,98,96,30.32,30.15,10,1,11,0.95
2013-1-12,66.9,60.0,56.5,59.4,57.1,54.5,99,91,74,30.17,30.07,12,1,13,0.14
2013-1-13,59.0,57.6,56.3,57.6,55.8,54.3,97,94,89,30.11,30.04,22,2,22,0.12
2013-1-14,59.7,58.0,48.9,58.8,57.2,48.0,98,97,93,30.10,30.02,19,3,20,1.60
2013-1-15,56.1,52.4,48.6,55.8,51.9,48.0,99,98,97,30.10,30.00,9,1,9,1.75
2013-1-16,54.5,52.5,50.4,54.1,52.1,49.8,99,99,98,30.01,29.93,11,1,11,0.93
2013-1-17,50.9,43.3,32.2,50.5,42.2,27.0,99,96,81,30.19,29.73,30,6,31,2.65
2013-1-18,46.4,34.2,26.8,27.3,19.8,12.9,82,58,27,30.55,30.19,19,3,24,0.04
2013-1-19,48.0,36.9,25.3,27.7,22.1,8.4,85,58,21,30.53,30.25,12,1,12,0.00
2013-1-20,55.2,43.8,32.0,32.5,24.1,11.3,80,47,27,30.25,30.08,14,2,14,0.00
2013-1-21,49.1,37.6,28.0,27.7,20.9,13.6,83,53,32,30.12,30.02,21,2,21,0.00
2013-1-22,36.0,26.4,18.9,15.1,8.4,2.3,65,48,26,30.30,30.01,16,2,16,0.00
2013-1-23,43.9,29.1,14.7,27.0,16.7,3.4,77,60,44,30.41,30.16,15,2,15,0.00
2013-1-24,40.5,34.3,19.8,30.6,17.3,3.7,69,51,32,30.46,30.07,17,4,18,0.00
2013-1-25,42.6,25.2,17.4,39.9,18.4,1.4,97,77,46,30.48,30.19,16,1,16,0.12
2013-1-26,42.6,33.3,27.1,37.8,30.4,24.6,97,90,63,30.39,30.19,9,0,12,0.12
2013-1-27,42.1,31.8,22.6,32.0,27.3,21.4,97,84,66,30.57,30.39,7,1,7,0.00
2013-1-28,55.2,44.5,34.2,50.0,41.0,28.0,98,87,71,30.52,30.30,15,2,16,0.00
2013-1-29,60.1,53.6,45.3,56.8,49.6,39.6,96,86,74,30.30,30.02,21,2,21,0.18
2013-1-30,59.5,54.7,39.6,58.6,53.6,38.1,98,96,89,30.03,29.46,31,4,31,4.15
2013-1-31,39.4,32.1,25.9,38.1,21.7,16.2,95,66,45,30.11,29.52,23,3,23,0.28
2013-2-1,35.6,27.6,16.9,28.8,11.4,-4.4,86,53,27,30.40,30.01,20,3,20,0.00
2013-2-2,36.7,26.1,15.4,29.5,17.2,2.5,97,72,27,30.42,30.12,15,2,17,0.00
2013-2-3,40.1,32.8,26.4,30.4,24.7,19.6,97,73,51,30.13,29.97,18,2,18,0.04
2013-2-4,45.9,32.8,21.4,24.6,21.0,18.7,90,64,35,30.20,30.06,12,1,12,0.00
2013-2-5,52.5,42.8,31.3,38.1,29.4,21.9,75,59,42,30.06,29.98,16,1,16,0.00
2013-2-6,57.7,44.9,30.9,36.1,27.9,18.1,94,56,23,30.25,30.03,7,1,10,0.00
2013-2-7,41.2,38.5,36.0,38.1,30.7,22.1,97,75,50,30.27,30.02,16,2,16,0.35
2013-2-8,49.6,41.3,34.2,44.4,35.6,23.2,98,82,53,30.14,29.95,25,5,27,0.08
2013-2-9,54.9,40.3,29.7,23.4,17.5,10.0,68,42,19,30.38,30.12,20,1,20,0.00
2013-2-10,46.6,39.8,34.0,43.5,27.6,18.9,98,64,41,30.43,30.21,12,1,14,0.48
2013-2-11,53.2,48.3,41.4,51.6,44.0,25.5,98,86,51,30.21,30.01,13,1,13,0.92
2013-2-12,51.8,42.1,34.2,38.1,29.3,16.9,95,63,25,30.12,29.93,10,1,11,0.07
2013-2-13,44.2,37.8,33.3,40.8,35.2,26.8,98,90,74,29.95,29.69,14,1,14,0.15
2013-2-14,46.6,35.4,24.4,33.6,27.3,22.6,96,74,46,30.12,29.91,14,1,14,0.01
2013-2-15,53.1,40.0,28.2,34.3,28.9,23.7,89,67,40,30.16,30.00,17,1,17,0.00
2013-2-16,34.9,27.5,18.3,28.9,20.1,7.2,92,74,49,30.06,29.86,25,4,27,0.00
2013-2-17,35.4,24.6,14.2,11.1,5.1,-3.5,67,45,21,30.35,30.06,20,2,20,0.00
2013-2-18,48.0,34.3,20.1,24.1,18.2,9.9,70,53,36,30.44,30.25,18,1,18,0.00
2013-2-19,47.8,37.8,32.2,39.2,25.6,8.6,96,65,35,30.25,29.93,16,3,16,0.33
2013-2-20,47.7,33.5,20.8,15.3,9.2,1.6,67,39,16,30.18,30.06,10,1,11,0.00
2013-2-21,54.9,37.7,22.3,34.3,17.8,7.7,94,50,18,30.27,30.15,11,1,11,0.34
2013-2-22,42.1,35.3,30.9,41.5,34.2,28.9,98,96,91,30.31,30.13,8,1,8,0.89
2013-2-23,49.6,45.2,39.7,49.1,44.6,39.2,99,98,96,30.14,29.85,6,0,7,0.90
2013-2-24,57.6,44.2,31.6,42.4,31.8,21.6,98,66,25,30.06,29.87,13,1,13,0.01
2013-2-25,44.1,35.2,28.9,30.2,25.5,22.8,95,68,49,30.17,30.02,14,2,14,0.07
2013-2-26,41.4,34.1,30.7,39.0,32.6,29.5,98,94,79,30.05,29.65,19,2,19,2.42
2013-2-27,51.4,40.8,32.2,36.0,30.9,27.9,87,69,44,29.85,29.71,14,2,14,0.00
2013-2-28,39.0,33.3,26.1,30.6,23.9,20.1,83,68,56,29.94,29.75,18,2,18,0.00
2013-3-1,39.0,31.1,23.4,27.7,24.2,20.8,91,76,58,29.99,29.92,12,2,12,0.00
2013-3-2,35.1,30.0,23.5,27.3,23.2,16.2,94,77,52,29.99,29.89,20,4,20,0.04
2013-3-3,35.2,25.2,18.7,18.9,14.8,11.5,81,65,46,30.08,29.96,14,3,16,0.00
2013-3-4,48.0,32.5,14.5,25.9,16.1,9.3,83,54,26,30.23,30.07,12,1,12,0.00
2013-3-5,48.4,41.7,31.5,46.8,35.9,24.6,97,81,56,30.16,29.68,17,2,19,0.68
2013-3-6,35.2,29.2,24.1,25.3,21.3,15.8,90,72,54,30.19,29.70,33,6,34,0.00
2013-3-7,50.7,32.9,20.8,30.2,24.2,19.2,95,73,39,30.32,30.18,12,2,15,0.00
2013-3-8,54.3,35.4,19.9,26.4,16.2,5.5,95,55,15,30.37,30.30,18,2,18,0.00
2013-3-9,57.4,42.0,26.1,29.1,23.2,12.7,75,49,32,30.39,30.29,9,1,9,0.00
2013-3-10,58.8,48.2,37.2,35.1,30.8,26.2,65,52,35,30.31,30.18,10,1,13,0.00
2013-3-11,52.0,48.2,45.1,49.5,45.7,34.9,97,92,60,30.19,29.83,22,2,22,0.90
2013-3-12,56.1,47.1,34.9,50.2,40.7,26.8,98,81,52,30.04,29.76,15,2,15,1.41
2013-3-13,43.0,34.8,27.1,27.5,21.3,16.3,86,59,35,30.20,30.03,21,2,21,0.00
2013-3-14,46.0,32.1,21.9,18.0,14.1,9.3,69,50,27,30.36,30.19,25,3,25,0.00
2013-3-15,63.9,44.9,25.3,41.2,28.5,14.5,84,55,29,30.27,30.00,16,2,17,0.00
2013-3-16,71.4,60.4,50.2,44.6,41.6,39.4,68,51,33,30.01,29.77,19,3,19,0.00
2013-3-17,66.6,58.2,50.5,48.0,44.6,40.8,82,61,45,29.97,29.84,14,1,14,0.00
2013-3-18,50.5,41.6,37.6,45.3,40.1,36.5,98,95,82,30.02,29.87,11,1,11,0.73
2013-3-19,56.7,45.8,38.5,44.2,29.0,15.4,99,60,21,30.09,29.90,17,2,17,0.02
2013-3-20,49.6,39.6,31.8,26.4,10.6,3.4,80,31,20,30.12,29.86,16,2,16,0.00
2013-3-21,39.7,29.6,20.1,27.9,12.5,7.2,90,51,29,30.01,29.79,14,2,14,0.00
2013-3-22,42.8,32.3,20.1,24.4,16.3,10.6,72,52,32,30.12,30.01,11,1,11,0.00
2013-3-23,54.9,42.5,36.1,46.4,37.3,24.3,96,83,56,30.10,29.90,9,1,10,0.06
2013-3-24,42.4,38.7,36.0,39.6,37.6,35.1,98,96,89,29.95,29.55,22,3,22,0.97
2013-3-25,36.5,30.5,25.9,35.8,22.1,17.4,98,72,55,29.96,29.57,38,4,38,0.03
2013-3-26,36.3,29.2,22.6,21.7,19.1,16.7,85,66,49,30.27,29.96,26,5,27,0.00
2013-3-27,47.8,33.5,23.7,25.0,19.7,15.8,77,59,29,30.33,30.24,18,3,19,0.00
2013-3-28,51.6,36.1,21.4,21.7,16.6,3.0,88,52,14,30.37,30.26,20,2,20,0.00
2013-3-29,51.1,38.8,26.4,36.1,24.5,15.1,89,59,30,30.39,30.27,14,1,14,0.01
2013-3-30,58.1,46.9,37.6,40.5,37.9,35.4,96,73,47,30.28,30.09,11,1,13,0.03
2013-3-31,59.2,51.1,45.3,51.6,48.4,41.2,98,91,65,30.09,29.86,14,1,14,0.55
2013-4-1,61.3,51.8,42.8,49.5,39.9,31.6,98,67,40,29.99,29.85,14,2,15,0.00
2013-4-2,59.7,46.1,34.3,31.6,24.1,13.6,78,46,18,30.15,29.97,16,2,18,0.00
2013-4-3,54.7,45.2,37.0,27.0,21.0,14.9,48,38,27,30.28,30.14,13,2,13,0.00
2013-4-4,45.1,34.8,31.3,32.7,29.7,23.7,97,84,45,30.27,30.01,16,3,18,0.51
2013-4-5,56.5,43.6,33.3,39.9,34.6,29.8,98,74,37,30.13,29.96,28,4,32,0.01
2013-4-6,62.6,51.4,37.8,34.3,31.4,28.4,70,48,32,30.24,30.12,12,1,14,0.00
2013-4-7,62.8,52.9,38.3,44.4,38.2,29.8,81,58,45,30.22,30.13,16,2,17,0.00
2013-4-8,66.6,57.2,45.5,52.0,47.1,41.0,92,70,54,30.17,30.09,19,2,21,0.00
2013-4-9,74.3,63.9,51.1,55.2,52.1,48.2,92,67,51,30.19,30.10,14,2,14,0.00
2013-4-10,77.2,66.7,54.3,55.9,53.6,49.8,87,64,45,30.11,29.94,14,2,15,0.00
2013-4-11,69.4,63.2,57.0,61.7,55.6,51.6,96,77,56,29.95,29.65,28,3,28,0.23
2013-4-12,71.2,61.1,48.7,61.7,45.8,28.0,98,63,25,29.82,29.59,35,4,38,1.58
2013-4-13,70.2,54.7,36.0,39.4,32.1,25.2,86,47,19,30.06,29.81,16,2,17,0.00
2013-4-14,64.2,52.9,41.9,48.4,39.1,32.0,96,62,36,30.10,29.98,18,1,18,0.23
2013-4-15,62.1,54.1,48.4,55.6,51.8,47.3,98,92,73,30.22,29.96,10,1,13,0.51
2013-4-16,70.0,61.4,54.9,58.3,55.6,53.4,97,82,63,30.29,30.19,11,1,11,0.00
2013-4-17,74.7,60.5,54.9,61.2,56.4,52.5,97,87,57,30.24,30.12,24,1,24,1.27
2013-4-18,71.2,61.9,54.3,58.8,56.3,53.4,98,83,57,30.13,29.93,14,1,15,0.00
2013-4-19,62.1,56.8,42.6,60.6,54.5,36.0,98,92,62,29.94,29.71,29,3,29,1.86
2013-4-20,57.7,45.1,36.0,38.8,26.7,19.6,87,50,30,30.31,29.88,26,5,28,0.00
2013-4-21,57.6,45.9,33.6,36.0,30.2,25.5,78,55,38,30.45,30.31,22,2,22,0.00
2013-4-22,59.5,46.7,38.1,37.2,35.1,30.2,88,66,34,30.42,30.23,16,3,17,0.00
2013-4-23,65.7,51.0,36.3,45.1,37.0,27.0,77,60,43,30.31,30.14,13,1,13,0.00
2013-4-24,61.2,53.8,49.8,50.5,46.0,43.3,80,75,68,30.17,30.06,16,1,16,0.00
2013-4-25,66.2,59.3,47.8,39.0,28.8,15.3,44,32,18,30.32,30.19,12,3,13,0.00
2013-4-26,64.2,52.5,38.1,39.2,31.7,26.6,66,46,30,30.42,30.31,12,1,12,0.00
2013-4-27,54.7,49.7,46.8,48.9,45.3,36.3,97,86,53,30.38,30.26,6,0,6,0.85
2013-4-28,49.6,47.5,44.6,49.1,46.7,43.5,98,97,94,30.27,30.08,12,0,12,2.69
2013-4-29,66.2,56.8,48.7,56.3,52.1,48.2,99,86,63,30.10,29.95,13,1,14,0.07
2013-4-30,66.7,57.1,45.9,57.0,52.3,45.3,98,85,62,30.17,29.98,12,1,12,0.00
2013-5-1,59.2,54.9,51.4,54.3,50.3,48.6,95,85,72,30.27,30.16,20,4,20,0.00
2013-5-2,56.3,52.3,50.7,53.6,51.0,49.3,98,95,90,30.29,30.22,14,3,14,0.14
2013-5-3,53.6,50.6,48.0,51.4,49.1,46.6,98,95,80,30.24,30.09,17,4,17,0.24
2013-5-4,50.4,46.0,42.4,48.7,44.6,40.6,98,95,87,30.10,29.97,18,5,18,0.73
2013-5-5,48.6,46.0,43.2,48.0,45.4,42.4,98,97,97,30.01,29.85,20,4,23,4.84
2013-5-6,57.4,50.0,40.5,50.5,45.1,39.2,99,85,59,29.92,29.80,19,1,21,0.09
2013-5-7,63.0,49.5,37.2,48.6,42.3,33.4,98,79,40,29.99,29.89,11,1,12,0.00
2013-5-8,65.7,56.2,43.7,52.0,48.8,42.4,98,78,57,30.07,29.94,10,1,11,0.00
2013-5-9,73.6,59.8,47.5,56.3,51.5,46.6,98,77,48,30.12,30.04,14,1,17,0.00
2013-5-10,71.4,62.3,51.1,59.0,54.9,49.6,97,78,59,30.12,29.96,17,1,17,0.00
2013-5-11,69.6,62.0,55.6,59.9,55.2,51.3,90,79,64,29.97,29.81,14,1,14,0.22
2013-5-12,65.7,55.8,45.1,53.1,38.9,26.6,94,56,24,30.06,29.85,20,2,21,0.00
2013-5-13,62.2,49.9,38.8,31.3,27.4,21.9,70,44,23,30.22,30.05,15,2,15,0.00
2013-5-14,66.6,54.4,36.0,50.9,38.7,29.1,81,57,37,30.28,30.12,13,1,14,0.00
2013-5-15,83.1,71.1,59.5,58.1,51.4,46.4,71,51,29,30.12,29.94,11,1,14,0.00
2013-5-16,75.0,67.2,58.8,57.9,52.7,46.6,87,61,39,30.02,29.94,7,0,8,0.00
2013-5-17,75.0,64.5,55.9,59.4,56.2,53.1,95,76,50,30.09,30.00,8,0,9,0.00
2013-5-18,64.9,61.2,59.5,61.9,59.0,56.3,97,93,85,30.10,30.03,9,0,9,1.47
2013-5-19,68.7,63.1,59.7,64.0,60.9,58.8,98,93,81,30.11,29.99,8,0,8,0.32
2013-5-20,75.6,64.0,57.0,67.3,61.3,56.5,98,92,68,30.10,30.03,9,0,9,0.02
2013-5-21,78.3,65.8,59.9,66.9,62.0,59.0,99,89,64,30.04,29.95,13,0,13,0.14
2013-5-22,77.2,66.1,59.4,66.9,62.1,57.2,98,88,64,30.02,29.86,16,0,16,0.75
2013-5-23,75.6,66.3,57.6,63.3,56.7,49.6,98,74,42,29.92,29.84,11,0,13,0.40
2013-5-24,63.1,57.4,49.3,51.8,41.0,30.6,88,57,32,30.22,29.88,23,4,25,0.00
2013-5-25,71.1,56.6,37.4,48.6,39.9,27.0,92,57,27,30.32,30.20,13,1,13,0.00
2013-5-26,70.0,56.9,45.3,52.5,45.6,36.5,91,67,38,30.29,30.19,10,0,10,0.00
2013-5-27,73.4,62.5,48.7,57.2,52.6,47.1,97,72,50,30.27,30.15,13,1,13,0.00
2013-5-28,75.6,65.6,56.8,59.7,56.9,53.1,93,74,55,30.21,30.15,9,0,10,0.00
2013-5-29,76.6,67.1,56.7,62.1,59.0,55.2,96,77,57,30.22,30.15,10,1,11,0.00
2013-5-30,74.7,65.3,56.5,62.4,59.0,55.0,98,81,60,30.26,30.17,10,0,11,0.00
2013-5-31,75.6,67.2,59.4,63.0,60.4,56.8,96,80,59,30.21,30.11,9,0,10,0.09
2013-6-1,74.8,67.3,61.5,63.9,61.6,59.5,96,83,63,30.12,30.01,13,1,13,0.07
2013-6-2,72.7,65.0,61.5,67.5,63.3,60.4,98,94,81,30.05,29.89,9,0,10,1.34
2013-6-3,77.5,67.2,59.9,67.1,62.5,58.5,99,86,54,29.96,29.85,15,1,17,0.07
2013-6-4,76.3,65.9,55.0,64.9,60.5,54.1,98,84,63,30.06,29.94,9,1,12,0.07
2013-6-5,75.4,66.6,61.5,66.2,63.1,59.7,97,89,72,30.06,29.93,11,1,11,0.91
2013-6-6,71.2,65.0,60.3,66.0,63.0,59.7,98,93,82,29.96,29.78,7,0,7,0.41
2013-6-7,78.3,66.1,61.3,67.3,62.8,59.5,98,90,57,29.82,29.66,8,0,8,0.29
2013-6-8,77.4,67.2,60.1,65.8,62.3,58.1,98,85,57,30.09,29.81,9,0,9,0.09
2013-6-9,77.9,67.2,61.5,68.2,64.2,60.6,98,91,70,30.12,30.01,14,1,15,1.04
2013-6-10,71.2,65.5,61.9,65.1,63.3,59.5,98,93,75,30.03,29.91,16,1,20,2.18
2013-6-11,81.1,70.7,61.5,65.8,61.9,57.7,96,76,46,30.01,29.93,9,0,10,0.05
2013-6-12,85.6,71.5,58.8,75.2,65.7,57.7,98,83,58,30.03,29.94,6,0,6,0.00
2013-6-13,86.0,73.0,62.1,66.9,63.5,60.1,97,74,44,29.94,29.69,15,0,16,0.36
2013-6-14,73.8,65.8,55.2,61.3,53.5,48.6,97,66,46,30.05,29.78,20,4,20,0.00
2013-6-15,75.9,65.1,51.3,61.5,56.1,49.6,96,74,54,30.14,30.04,9,0,9,0.00
2013-6-16,77.2,68.1,56.5,65.3,60.4,54.5,95,78,58,30.14,30.02,8,0,8,0.00
2013-6-17,76.5,68.0,63.5,68.5,65.0,62.2,97,90,72,30.05,29.93,7,0,7,1.21
2013-6-18,74.5,67.0,61.2,68.7,64.5,59.7,98,92,78,29.95,29.80,10,0,10,0.39
2013-6-19,72.9,66.1,59.7,65.3,60.8,57.0,96,84,65,30.11,29.91,10,1,11,0.00
2013-6-20,66.6,59.5,57.0,62.6,58.7,56.5,98,97,87,30.24,30.11,7,0,7,0.00
2013-6-21,74.8,65.4,55.9,63.5,59.4,55.4,98,82,56,30.27,30.18,10,1,11,0.00
2013-6-22,77.2,65.6,55.0,61.7,57.0,44.4,98,77,32,30.25,30.13,11,1,11,0.00
2013-6-23,73.8,65.6,56.7,68.7,62.8,55.4,98,91,74,30.22,30.13,10,0,10,0.29
2013-6-24,78.6,69.9,62.2,68.9,65.7,61.5,98,87,67,30.22,30.09,9,0,9,0.70
2013-6-25,79.3,69.7,62.4,69.3,65.5,61.5,97,87,64,30.14,30.02,9,0,9,0.15
2013-6-26,81.5,70.2,62.2,71.8,65.8,61.7,98,87,61,30.04,29.92,11,0,12,0.29
2013-6-27,81.1,72.2,64.2,69.4,66.7,63.1,98,84,65,29.96,29.74,9,0,9,0.11
2013-6-28,83.1,73.1,61.7,68.5,64.9,60.8,98,77,51,29.81,29.61,12,0,12,0.01
2013-6-29,79.0,69.8,59.2,65.8,61.0,55.6,97,75,48,29.70,29.61,9,0,9,0.00
2013-6-30,78.4,68.6,58.8,66.4,61.4,56.8,97,80,52,29.81,29.69,9,0,10,0.20
2013-7-1,75.7,67.0,61.2,66.9,63.7,60.1,98,90,67,29.95,29.78,9,0,11,1.75
2013-7-2,76.8,67.8,61.9,68.5,64.9,61.0,98,91,71,30.12,29.94,10,0,10,0.79
2013-7-3,71.8,65.2,59.5,68.7,64.2,59.0,98,97,88,30.22,30.07,8,1,12,4.96
2013-7-4,69.3,63.8,59.5,68.7,63.3,59.0,99,98,95,30.22,30.15,12,1,15,2.49
2013-7-5,75.6,67.3,63.5,67.5,64.9,63.0,99,92,71,30.24,30.17,15,0,15,0.45
2013-7-6,75.0,67.6,63.0,69.6,65.9,62.4,99,94,78,30.20,30.10,14,1,14,1.82
2013-7-7,74.3,69.6,65.8,68.9,66.8,65.3,98,91,80,30.16,30.08,10,0,11,0.77
2013-7-8,77.4,69.9,63.9,70.7,67.0,63.3,98,91,72,30.19,30.10,9,0,9,0.04
2013-7-9,81.0,72.1,64.9,72.1,68.3,64.4,98,88,65,30.17,30.05,9,0,10,0.39
2013-7-10,80.2,69.8,65.5,71.8,67.9,64.9,99,94,73,30.12,29.95,7,0,7,0.15
2013-7-11,76.6,69.4,64.6,70.3,67.2,64.0,99,93,79,29.96,29.86,5,0,6,1.59
2013-7-12,76.1,67.5,61.0,69.3,64.7,60.1,99,91,66,29.98,29.87,12,1,12,1.66
2013-7-13,68.5,64.4,60.3,65.5,62.9,59.4,99,95,88,30.11,29.98,11,2,11,0.21
2013-7-14,70.2,66.5,64.8,67.1,65.7,64.2,99,97,90,30.28,30.10,12,1,12,0.93
2013-7-15,75.7,69.6,64.2,68.4,66.1,63.3,99,89,74,30.33,30.26,11,1,11,0.02
2013-7-16,81.9,72.4,63.0,72.0,67.4,62.4,99,85,57,30.32,30.23,11,1,11,0.03
2013-7-17,82.0,71.4,64.4,70.9,66.8,60.6,99,87,51,30.27,30.14,20,2,20,0.16
2013-7-18,81.0,71.7,61.5,72.0,66.8,61.0,99,85,67,30.20,30.07,7,0,10,0.16
2013-7-19,82.8,73.2,64.4,71.8,68.0,63.9,99,85,58,30.13,29.98,10,0,10,0.00
2013-7-20,82.4,70.9,65.5,71.6,68.3,63.1,98,92,65,30.03,29.92,15,0,15,0.79
2013-7-21,78.3,69.1,64.2,71.1,66.6,63.9,99,92,68,30.00,29.93,10,0,11,1.17
2013-7-22,80.2,70.4,63.0,71.2,66.9,62.4,99,89,65,30.00,29.84,9,0,10,0.27
2013-7-23,80.4,71.3,61.3,70.7,65.3,60.3,98,83,58,29.90,29.77,6,0,6,0.25
2013-7-24,81.5,68.5,62.1,70.3,64.8,60.8,99,89,61,29.86,29.76,13,1,13,0.09
2013-7-25,78.1,66.6,59.7,68.7,63.2,59.0,98,89,66,30.04,29.85,9,0,9,1.75
2013-7-26,77.2,67.5,59.2,68.9,64.0,58.6,99,89,69,30.09,30.01,8,0,9,0.90
2013-7-27,76.3,69.2,64.4,69.3,65.7,63.1,98,89,67,30.05,29.88,7,0,9,1.87
2013-7-28,78.4,68.9,59.4,67.8,63.8,58.8,99,85,61,30.02,29.90,9,0,9,0.00
2013-7-29,79.2,66.8,56.5,67.1,61.2,55.9,99,83,60,30.19,30.02,6,0,7,0.01
2013-7-30,78.4,66.4,54.7,68.9,61.8,53.6,98,86,59,30.22,30.13,6,0,9,0.37
2013-7-31,72.0,67.3,64.0,68.7,65.6,63.5,99,95,84,30.18,29.96,8,0,8,0.40
2013-8-1,81.0,69.3,63.3,69.3,66.1,62.8,98,90,65,29.99,29.89,13,0,13,1.49
2013-8-2,78.6,68.8,59.7,69.4,64.8,59.2,99,88,68,30.04,29.93,8,0,8,0.01
2013-8-3,81.0,70.7,63.3,69.1,64.9,61.0,98,83,54,30.04,29.96,6,0,6,0.00
2013-8-4,79.5,70.5,63.9,68.0,63.7,57.7,97,80,61,30.04,29.95,16,2,17,0.00
2013-8-5,77.4,68.3,59.4,68.2,63.5,57.9,97,85,68,30.06,29.97,10,0,11,0.00
2013-8-6,78.3,70.0,66.7,70.2,67.0,64.6,98,91,67,30.03,29.94,9,0,10,0.54
2013-8-7,70.7,67.4,64.9,69.3,66.6,64.2,98,97,92,30.06,29.99,6,0,8,2.62
2013-8-8,75.9,69.7,64.8,70.7,67.5,64.2,98,93,81,30.07,30.01,7,0,8,0.00
2013-8-9,80.1,71.7,67.5,72.1,68.8,66.6,98,91,73,30.09,30.01,4,0,4,0.25
2013-8-10,81.7,71.5,65.1,72.5,68.6,64.2,98,91,68,30.12,30.04,11,0,12,3.24
2013-8-11,81.9,70.9,64.2,72.3,67.5,63.7,99,90,65,30.14,30.06,5,0,6,0.03
2013-8-12,82.8,71.5,62.4,72.9,67.4,61.9,98,88,63,30.11,29.96,2,0,2,0.02
2013-8-13,79.0,70.7,64.9,69.6,66.0,62.4,97,86,65,29.98,29.83,9,0,9,0.05
2013-8-14,72.1,65.5,60.6,63.9,60.5,56.5,95,84,70,30.06,29.88,11,1,11,0.02
2013-8-15,61.9,58.8,55.6,59.5,56.0,53.6,97,91,81,30.16,30.05,14,1,14,0.02
2013-8-16,65.7,58.8,54.1,58.1,55.2,52.7,96,88,74,30.18,30.10,12,2,14,0.00
2013-8-17,63.0,59.0,56.1,59.2,56.7,52.7,98,92,82,30.20,30.14,13,2,13,0.07
2013-8-18,73.6,63.8,59.2,66.7,61.9,58.6,98,94,76,30.24,30.14,5,0,5,0.27
2013-8-19,69.6,64.6,61.3,66.9,63.2,60.6,98,95,87,30.21,30.09,8,0,8,1.39
2013-8-20,73.9,66.2,59.5,68.4,64.1,59.0,98,93,81,30.21,30.11,7,0,7,0.00
2013-8-21,71.4,66.1,63.3,68.0,64.8,62.6,98,96,82,30.24,30.14,5,0,6,0.50
2013-8-22,80.2,68.9,61.9,70.5,65.6,61.3,99,90,62,30.18,30.04,10,0,10,0.45
2013-8-23,79.9,67.2,58.8,72.3,63.7,58.3,98,90,58,30.09,29.98,12,0,13,1.44
2013-8-24,72.5,65.0,56.3,63.0,60.3,54.7,98,86,59,30.31,30.08,15,2,15,0.01
2013-8-25,71.1,61.1,51.4,61.7,56.3,50.7,98,85,62,30.40,30.30,9,0,9,0.00
2013-8-26,74.1,63.3,53.1,65.7,58.3,52.5,98,85,57,30.36,30.16,16,1,17,0.00
2013-8-27,77.7,66.8,56.5,68.2,62.0,55.9,98,86,58,30.19,30.04,16,1,16,0.01
2013-8-28,79.7,69.6,61.2,70.2,65.2,60.3,98,87,67,30.08,29.96,11,1,11,0.00
2013-8-29,82.8,71.7,63.0,71.8,66.6,62.1,98,85,58,29.98,29.91,13,1,13,0.00
2013-8-30,75.0,69.3,66.4,70.2,67.3,65.5,98,94,82,30.03,29.93,8,0,9,0.23
2013-8-31,81.3,71.2,64.6,70.7,67.5,63.7,98,89,68,29.97,29.88,6,0,6,0.01
2013-9-1,79.7,70.8,64.2,72.0,67.5,63.3,98,90,75,29.91,29.81,10,0,10,0.09
2013-9-2,81.0,69.0,61.7,71.4,65.0,61.0,98,88,62,29.92,29.83,11,0,12,0.11
2013-9-3,77.2,67.6,60.1,68.9,63.4,58.6,98,87,64,30.00,29.86,16,1,17,0.21
2013-9-4,77.7,67.7,57.6,67.6,63.3,56.5,98,87,68,30.12,29.99,6,0,6,0.00
2013-9-5,79.7,67.0,58.3,67.3,60.1,55.0,97,81,46,30.15,30.08,10,0,10,0.00
2013-9-6,73.9,64.1,55.6,64.2,58.8,52.9,96,84,65,30.19,30.09,10,0,10,0.00
2013-9-7,75.9,64.5,55.8,66.4,60.6,54.9,97,88,65,30.14,30.02,7,0,8,0.00
2013-9-8,76.5,66.8,57.9,67.8,62.8,57.0,98,88,67,30.03,29.96,7,0,7,0.01
2013-9-9,78.1,67.6,59.4,68.7,63.8,58.5,98,88,66,30.17,30.03,8,0,10,0.00
2013-9-10,79.9,68.7,59.7,68.4,63.6,58.8,98,85,61,30.25,30.16,8,0,8,0.00
2013-9-11,79.0,67.9,59.9,70.0,64.3,59.0,98,89,66,30.24,30.11,11,0,12,0.01
2013-9-12,80.8,68.1,61.9,69.1,64.5,61.0,98,89,61,30.11,29.88,7,0,7,0.02
2013-9-13,75.6,64.6,56.3,61.7,57.5,50.0,97,79,56,29.90,29.81,11,1,12,0.04
2013-9-14,70.2,57.6,48.0,57.4,51.4,46.4,96,81,58,30.15,29.90,12,1,12,0.00
2013-9-15,70.3,60.5,51.1,62.2,56.6,50.2,97,88,66,30.23,30.14,9,0,9,0.00
2013-9-16,76.6,65.5,57.0,63.5,59.6,55.9,97,83,57,30.18,30.08,7,0,7,0.01
2013-9-17,64.2,59.9,56.8,60.3,55.0,51.1,91,84,70,30.28,30.16,12,2,13,0.00
2013-9-18,64.2,58.6,53.4,58.1,55.2,51.6,95,89,76,30.29,30.18,7,0,7,0.00
2013-9-19,73.2,62.3,52.9,66.0,59.7,52.0,97,92,69,30.21,30.11,5,0,5,0.20
2013-9-20,76.5,65.7,58.5,66.6,62.1,57.7,98,89,65,30.12,29.94,6,0,6,0.00
2013-9-21,64.9,62.1,58.3,63.1,60.6,56.1,97,95,90,29.95,29.68,13,1,14,1.69
2013-9-22,70.5,59.8,51.1,59.4,54.7,50.2,97,84,63,29.93,29.74,8,0,8,0.00
2013-9-23,67.5,58.7,53.4,59.4,54.7,51.4,96,87,68,30.07,29.93,9,0,9,0.00
2013-9-24,65.8,59.1,50.2,60.4,56.3,49.3,97,91,80,30.09,29.94,8,0,8,0.00
2013-9-25,59.4,57.4,54.9,58.1,56.6,54.3,98,97,95,29.96,29.86,7,0,7,1.11
2013-9-26,66.6,57.7,50.5,60.6,55.7,49.5,98,93,76,30.08,29.90,10,1,10,0.01
2013-9-27,68.5,57.0,47.7,59.7,52.7,46.9,98,87,62,30.20,30.07,11,1,11,0.01
2013-9-28,63.9,56.4,49.3,56.5,52.8,48.4,97,88,72,30.26,30.17,11,1,12,0.00
2013-9-29,64.9,55.2,45.3,56.3,51.6,44.6,97,88,64,30.20,30.06,11,0,11,0.00
2013-9-30,64.9,56.6,47.3,57.7,53.6,46.4,98,90,73,30.13,30.03,5,0,5,0.00
2013-10-1,72.3,60.5,50.5,60.8,55.0,50.0,98,84,55,30.18,30.08,7,0,7,0.00
2013-10-2,72.0,60.8,51.4,62.4,56.2,50.5,98,86,61,30.19,30.10,14,1,15,0.00
2013-10-3,73.8,62.5,54.5,63.3,57.8,53.6,98,86,62,30.16,30.09,8,0,8,0.00
2013-10-4,75.0,63.0,53.8,65.7,59.1,52.9,98,88,63,30.18,30.11,9,0,9,0.01
2013-10-5,76.3,64.1,54.3,65.3,59.7,53.8,98,87,64,30.17,30.06,5,0,8,0.00
2013-10-6,72.1,63.5,56.5,63.7,59.9,55.8,98,89,69,30.08,29.88,8,0,9,0.11
2013-10-7,70.2,60.3,50.9,64.6,57.4,46.6,97,90,80,30.01,29.81,12,1,12,1.87
2013-10-8,61.9,53.6,46.4,51.4,47.4,43.3,94,80,63,30.23,30.00,20,2,20,0.00
2013-10-9,65.5,53.6,46.2,53.1,45.5,38.3,96,75,59,30.25,30.14,14,2,14,0.00
2013-10-10,68.0,54.9,43.7,54.3,49.1,42.8,98,83,58,30.17,30.06,14,1,14,0.00
2013-10-11,70.2,58.9,48.6,53.6,51.2,47.5,97,77,49,30.06,29.97,15,2,15,0.00
2013-10-12,69.1,58.9,49.6,60.8,54.2,48.6,97,85,65,30.12,30.01,12,0,12,0.00
2013-10-13,66.7,60.3,55.2,60.6,57.5,54.3,97,91,76,30.22,30.12,13,1,13,0.02
2013-10-14,63.7,59.0,56.8,58.5,56.6,54.9,97,92,81,30.23,30.15,14,3,14,0.02
2013-10-15,62.6,56.8,52.5,57.6,54.1,51.4,97,91,79,30.19,30.06,8,1,8,0.00
2013-10-16,63.3,55.2,46.8,57.2,52.3,46.2,98,91,76,30.10,29.99,6,0,7,0.01
2013-10-17,61.2,58.2,54.1,60.3,57.3,53.6,98,97,94,30.01,29.87,9,0,9,0.14
2013-10-18,62.4,53.5,46.9,56.1,51.2,46.4,98,92,73,30.04,29.92,7,0,8,0.01
2013-10-19,61.0,53.0,42.6,52.5,48.3,41.5,98,85,61,30.00,29.88,5,0,6,0.01
2013-10-20,59.7,46.5,35.4,45.9,41.3,34.7,98,84,53,30.14,29.96,8,0,8,0.01
2013-10-21,61.0,48.8,38.7,50.9,45.7,37.9,98,90,67,30.19,30.06,12,0,12,0.00
2013-10-22,65.1,55.0,49.1,52.9,49.0,45.9,95,81,54,30.07,29.83,6,0,6,0.01
2013-10-23,52.5,46.3,33.6,45.9,35.3,27.9,89,67,46,30.05,29.75,16,1,17,0.00
2013-10-24,51.8,39.5,27.3,37.8,31.4,25.9,95,74,53,30.23,30.05,6,0,14,0.00
2013-10-25,44.8,35.4,26.4,32.7,26.0,19.4,94,70,42,30.43,30.23,18,2,18,0.00
2013-10-26,48.7,37.3,24.8,39.2,29.4,22.6,93,74,52,30.41,30.16,12,0,12,0.00
2013-10-27,62.8,50.4,37.0,49.6,44.0,35.8,96,79,59,30.18,30.11,9,0,10,0.00
2013-10-28,62.6,53.1,46.8,51.4,48.6,45.1,96,86,58,30.28,30.13,9,0,9,0.03
2013-10-29,64.8,52.7,43.5,52.5,47.9,42.6,97,85,54,30.37,30.25,9,0,10,0.01
2013-10-30,70.0,59.8,50.4,57.6,53.4,48.9,96,80,56,30.32,30.18,12,0,13,0.00
2013-10-31,61.5,58.3,54.9,59.0,54.5,50.2,96,87,72,30.19,29.88,17,1,18,0.19
2013-11-1,66.9,59.2,51.3,59.0,55.6,44.1,97,88,61,29.89,29.66,18,1,20,0.90
2013-11-2,59.0,49.4,41.4,44.6,38.3,32.7,91,67,43,30.04,29.75,20,1,20,0.00
2013-11-3,55.4,44.0,35.2,36.9,33.9,28.9,89,69,39,30.40,30.01,21,2,23,0.00
2013-11-4,50.2,39.7,31.8,33.8,31.1,28.9,91,73,48,30.56,30.39,11,1,11,0.00
2013-11-5,55.6,41.4,29.7,39.2,31.7,21.9,92,72,30,30.59,30.47,8,0,9,0.00
2013-11-6,62.6,51.9,42.3,52.2,48.2,39.2,97,88,67,30.49,30.17,7,0,7,0.10
2013-11-7,60.6,51.0,39.7,56.5,43.8,24.1,97,78,42,30.17,30.00,20,3,20,0.05
2013-11-8,51.4,40.4,30.4,25.3,19.2,4.8,70,46,16,30.37,30.14,23,4,24,0.00
2013-11-9,51.4,41.0,30.0,32.5,25.9,19.6,72,55,38,30.41,30.28,10,0,11,0.00
2013-11-10,65.5,49.9,37.9,35.8,28.7,21.9,66,45,28,30.32,30.20,12,1,12,0.00
2013-11-11,56.1,43.4,30.4,30.7,27.5,22.6,74,55,35,30.35,30.20,4,0,8,0.00
2013-11-12,52.9,39.4,20.8,36.5,25.9,11.7,74,59,36,30.46,30.13,32,7,32,0.00
2013-11-13,43.9,28.9,17.2,15.3,9.6,1.0,73,48,21,30.61,30.44,23,3,26,0.00
2013-11-14,53.8,38.4,25.5,21.7,14.7,8.6,60,39,20,30.57,30.39,9,0,10,0.00
2013-11-15,50.4,44.4,34.0,48.0,36.3,13.1,97,76,35,30.40,30.23,8,0,9,0.12
2013-11-16,57.7,51.5,48.0,52.7,49.8,47.1,98,94,81,30.29,30.20,8,0,9,0.09
2013-11-17,59.0,55.0,52.2,58.3,54.0,51.1,98,97,91,30.24,29.91,9,1,11,0.51
2013-11-18,64.0,54.6,43.2,58.3,42.3,28.4,98,67,31,30.01,29.87,21,3,21,0.13
2013-11-19,50.7,40.7,33.4,28.9,23.6,12.2,75,53,24,30.28,29.99,19,2,21,0.00
2013-11-20,45.7,36.7,28.2,29.8,25.8,22.8,84,66,41,30.50,30.27,15,2,15,0.00
2013-11-21,50.4,42.6,36.9,49.5,39.3,29.3,97,88,72,30.53,30.43,7,0,8,0.30
2013-11-22,60.1,53.7,49.1,57.0,52.7,48.2,98,96,88,30.44,30.14,11,1,12,0.21
2013-11-23,55.2,45.8,30.7,54.1,38.1,13.3,98,77,34,30.18,30.08,24,4,24,0.01
2013-11-24,34.7,27.0,19.6,21.2,6.6,1.6,68,43,25,30.57,30.17,23,6,32,0.00
2013-11-25,37.9,27.3,17.4,25.3,9.5,2.3,84,48,25,30.60,30.39,8,0,8,0.00
2013-11-26,43.5,37.6,28.6,43.0,36.7,24.8,98,96,83,30.39,29.70,9,0,10,3.86
2013-11-27,42.4,30.2,19.2,41.9,24.7,12.6,98,80,59,30.23,29.63,35,8,35,0.22
2013-11-28,45.0,26.7,12.7,27.0,18.6,10.9,93,74,34,30.57,30.22,7,0,7,0.00
2013-11-29,52.3,34.0,22.6,26.6,21.7,17.1,88,64,27,30.65,30.53,10,0,10,0.00
2013-11-30,44.2,31.9,23.7,25.7,22.1,19.8,85,68,47,30.65,30.43,7,1,7,0.00
2013-12-1,52.7,40.8,31.3,39.2,32.3,19.2,94,73,53,30.43,30.06,7,0,8,0.00
2013-12-2,51.4,41.7,30.6,41.7,36.6,28.0,93,83,66,30.06,29.86,8,0,8,0.00
2013-12-3,50.7,47.0,42.6,47.5,45.6,40.5,97,95,86,29.98,29.88,10,0,10,0.01
2013-12-4,57.4,52.9,47.8,55.6,51.7,46.9,98,96,87,30.09,29.96,14,1,15,0.06
2013-12-5,62.8,59.0,56.5,61.9,58.2,55.6,98,97,96,30.11,29.99,17,1,17,0.84
2013-12-6,63.1,61.4,56.8,61.7,60.5,55.8,98,97,93,30.03,29.93,23,4,23,1.32
2013-12-7,57.0,47.8,39.7,55.8,45.6,39.2,98,92,78,30.35,29.98,10,2,10,0.64
2013-12-8,40.5,36.0,34.5,39.7,35.3,33.6,98,97,97,30.37,30.26,9,1,11,0.25
2013-12-9,55.8,47.8,38.5,54.7,47.1,37.9,98,98,95,30.27,30.04,12,1,12,1.55
2013-12-10,52.3,42.8,24.3,50.7,35.7,13.1,98,77,43,30.32,29.89,20,2,22,0.19
2013-12-11,47.5,32.4,18.0,23.0,17.8,12.0,95,61,28,30.49,30.31,11,1,11,0.00
2013-12-12,41.4,30.1,22.3,20.1,15.8,10.4,75,56,35,30.45,30.34,10,1,10,0.00
2013-12-13,45.1,33.0,20.1,22.3,17.2,9.7,78,54,32,30.44,30.32,9,0,9,0.00
2013-12-14,45.1,39.5,34.5,44.4,35.7,21.4,97,87,56,30.33,29.83,9,1,9,1.40
2013-12-15,45.3,36.8,25.9,44.4,32.3,24.3,97,84,55,30.15,29.78,14,2,14,0.00
2013-12-16,50.4,37.9,25.2,27.9,25.3,23.2,94,64,37,30.26,30.14,14,1,14,0.01
2013-12-17,56.5,45.9,38.5,32.4,28.1,15.8,62,51,31,30.21,30.00,20,3,20,0.00
2013-12-18,48.2,34.9,24.6,20.3,15.8,9.9,72,48,24,30.37,30.06,7,0,10,0.00
2013-12-19,58.8,46.7,35.8,26.6,21.4,8.2,53,37,27,30.38,30.25,12,1,13,0.00
2013-12-20,55.0,48.4,40.5,49.5,36.4,25.9,92,65,37,30.25,30.17,12,1,14,0.00
2013-12-21,61.7,56.4,51.4,60.4,54.9,49.3,97,95,89,30.18,29.97,25,2,25,0.69
2013-12-22,61.3,57.2,54.0,60.3,56.3,52.9,98,97,94,30.06,29.95,25,2,25,2.50
2013-12-23,54.7,46.9,32.4,53.8,45.2,30.0,98,94,87,30.18,29.99,10,1,10,0.87
2013-12-24,33.1,27.4,17.6,30.4,22.5,13.8,97,82,59,30.48,30.17,16,2,16,0.00
2013-12-25,34.5,22.8,14.4,16.9,13.7,11.3,94,71,43,30.58,30.46,8,0,8,0.00
2013-12-26,48.7,33.5,22.6,25.9,20.6,14.7,89,62,29,30.48,30.34,11,0,11,0.00
2013-12-27,48.4,33.5,23.4,27.5,22.5,19.0,91,66,41,30.52,30.41,8,0,8,0.00
2013-12-28,48.4,37.6,28.9,36.1,25.7,17.6,95,65,31,30.50,30.13,8,0,10,0.39
2013-12-29,53.2,41.9,34.9,46.0,38.6,33.8,97,89,65,30.13,29.85,15,1,15,1.83
2013-12-30,45.7,37.4,31.1,38.1,33.8,29.8,97,87,63,30.19,30.01,10,0,10,0.00
2013-12-31,42.4,31.7,25.9,32.4,25.3,19.4,96,79,48,30.44,30.17,10,0,10,0.00
2014-1-1,41.0,33.4,26.8,28.8,24.5,19.2,88,70,49,30.44,30.20,13,1,13,0.00
2014-1-2,44.4,37.0,19.6,43.3,33.6,10.0,97,87,66,30.22,29.71,21,2,22,0.14